Time;durP1;ratioP1;P1;durP2;ratioP2;P2;SDS_P1;SDS_P2;PMS_P1;PMS_P2;Temp;Humidity;BMP_temperature;BMP_pressure;BME280_temperature;BME280_humidity;BME280_pressure;Samples;Min_cycle;Max_cycle;Signal;HPM_P1;HPM_P2
2021/11/09 04:53:40;;;;;;;17.33;8.80;;;;;;;9.02;57.85;98883.69;8192515;28;20243;-66
2021/11/09 05:02:23;;;;;;;15.23;8.47;;;;;;;8.86;58.24;98896.13;8351063;28;20232;-66
2021/11/09 05:10:49;;;;;;;17.27;8.53;;;;;;;8.92;57.66;98905.47;8318029;28;20228;-66
2021/11/09 05:14:52;;;;;;;12.40;8.13;;;;;;;8.88;57.32;98901.25;8317873;28;20232;-67
2021/11/09 05:18:55;;;;;;;15.57;8.10;;;;;;;8.87;57.39;98904.72;8317634;28;20229;-66
2021/11/09 05:22:59;;;;;;;14.57;8.50;;;;;;;8.80;56.73;98906.59;8317584;28;20427;-66
2021/11/09 05:27:04;;;;;;;13.60;8.60;;;;;;;8.76;56.61;98913.56;8317378;28;20562;-66
2021/11/09 05:31:07;;;;;;;16.13;8.87;;;;;;;8.59;56.35;98913.91;8317284;28;20232;-67
2021/11/09 05:35:10;;;;;;;12.50;8.27;;;;;;;8.72;56.07;98913.63;8317408;28;20233;-66
2021/11/09 05:39:16;;;;;;;17.10;8.70;;;;;;;8.70;55.91;98920.56;8317222;28;20319;-66
2021/11/09 05:43:21;;;;;;;13.43;8.30;;;;;;;8.59;55.69;98926.00;8317199;28;20315;-66
2021/11/09 05:47:24;;;;;;;16.20;8.70;;;;;;;8.45;55.77;98928.00;8331708;28;20244;-66
2021/11/09 05:51:27;;;;;;;11.43;8.00;;;;;;;8.46;55.84;98929.72;8349135;28;20239;-66
2021/11/09 05:55:31;;;;;;;15.33;7.80;;;;;;;8.50;55.75;98945.09;8345346;28;20236;-66
2021/11/09 05:59:35;;;;;;;12.47;6.90;;;;;;;8.47;55.22;98945.13;8342154;28;20236;-66
2021/11/09 06:03:39;;;;;;;10.53;6.43;;;;;;;8.39;55.22;98960.75;8349347;28;20553;-67
2021/11/09 06:07:42;;;;;;;11.90;6.30;;;;;;;8.37;55.26;98965.09;8346670;28;20562;-66
2021/11/09 06:11:47;;;;;;;8.67;5.90;;;;;;;8.27;55.11;98965.31;8348120;28;20228;-66
2021/11/09 06:15:52;;;;;;;9.93;6.30;;;;;;;8.22;54.79;98974.00;8348509;28;20318;-66
2021/11/09 06:19:54;;;;;;;8.73;6.40;;;;;;;8.25;54.98;98967.91;8348340;28;20244;-66
2021/11/09 06:23:57;;;;;;;10.83;6.50;;;;;;;8.20;55.18;98972.31;8348445;28;20228;-66
2021/11/09 06:28:03;;;;;;;9.13;5.93;;;;;;;8.17;55.02;98980.13;8347954;28;20224;-66
2021/11/09 06:32:08;;;;;;;6.83;5.40;;;;;;;8.18;54.86;98989.56;8348202;28;20236;-66
2021/11/09 06:36:11;;;;;;;14.80;7.47;;;;;;;8.12;54.98;99002.56;8348486;28;20236;-66
2021/11/09 06:40:14;;;;;;;10.17;7.87;;;;;;;8.17;54.68;98993.03;8347991;28;20231;-66
2021/11/09 06:44:17;;;;;;;11.27;7.80;;;;;;;8.15;54.77;99005.09;8348083;28;20228;-66
2021/11/09 06:48:23;;;;;;;14.87;8.20;;;;;;;8.15;54.87;99002.53;8347944;28;20243;-66
2021/11/09 06:52:26;;;;;;;13.30;8.13;;;;;;;8.17;54.90;99004.19;8347250;28;20235;-66
2021/11/09 07:01:50;;;;;;;16.57;8.63;;;;;;;8.20;55.18;99021.34;8347471;28;20235;-66
2021/11/09 07:05:55;;;;;;;15.50;10.17;;;;;;;8.15;55.27;99031.75;8347399;28;20443;-66
2021/11/09 07:09:58;;;;;;;24.27;13.03;;;;;;;8.26;54.83;99035.88;8347708;28;20241;-66
2021/11/09 07:14:03;;;;;;;21.03;13.77;;;;;;;8.36;55.18;99040.84;8347735;28;20234;-67
2021/11/09 07:18:07;;;;;;;19.00;10.97;;;;;;;8.48;54.98;99037.22;8350712;28;20231;-67
2021/11/09 07:22:11;;;;;;;19.37;10.77;;;;;;;8.49;54.56;99041.50;8354689;28;20235;-66
2021/11/09 07:26:14;;;;;;;22.63;11.90;;;;;;;8.63;54.98;99045.56;8354611;28;20381;-66
2021/11/09 07:30:17;;;;;;;23.27;12.43;;;;;;;8.71;55.66;99052.25;8354008;28;20236;-66
2021/11/09 07:34:20;;;;;;;22.13;11.60;;;;;;;9.04;55.14;99061.94;8354015;28;20427;-67
2021/11/09 07:38:24;;;;;;;14.07;9.63;;;;;;;10.02;53.10;99066.66;8353770;28;20236;-66
2021/11/09 07:42:27;;;;;;;17.57;10.63;;;;;;;10.67;51.48;99045.97;8353507;28;20224;-67
2021/11/09 07:46:31;;;;;;;17.07;11.63;;;;;;;11.04;50.17;99057.94;8353991;28;20232;-67
2021/11/09 07:50:34;;;;;;;15.43;10.63;;;;;;;11.58;48.78;99056.31;8353100;28;20236;-66
2021/11/09 07:54:40;;;;;;;15.53;10.90;;;;;;;12.10;48.25;99057.25;8350807;28;20232;-67
2021/11/09 07:58:51;;;;;;;18.60;10.50;;;;;;;12.59;47.19;99054.75;8344700;28;20302;-66
2021/11/09 08:03:08;;;;;;;16.10;10.07;;;;;;;12.83;46.93;99052.16;8352910;28;20236;-66
2021/11/09 08:07:15;;;;;;;18.50;9.60;;;;;;;13.16;46.32;99057.03;8352923;28;20326;-66
2021/11/09 08:11:19;;;;;;;14.97;9.53;;;;;;;13.64;45.48;99064.72;8352588;28;20232;-66
2021/11/09 08:15:22;;;;;;;15.30;9.37;;;;;;;13.94;45.08;99064.41;8352715;28;20238;-66
2021/11/09 08:19:25;;;;;;;14.03;8.30;;;;;;;13.98;45.03;99062.53;8352408;28;20531;-66
2021/11/09 08:23:28;;;;;;;11.63;7.10;;;;;;;14.42;44.50;99058.06;8352170;28;20228;-67
2021/11/09 08:27:32;;;;;;;12.13;7.03;;;;;;;14.80;44.04;99062.56;8352149;28;20228;-67
2021/11/09 08:31:41;;;;;;;16.83;7.63;;;;;;;15.09;43.62;99069.09;8351047;28;20239;-67
2021/11/09 08:35:44;;;;;;;11.87;5.90;;;;;;;16.05;51.97;99069.84;8351454;28;20243;-66
2021/11/09 08:39:47;;;;;;;13.37;6.47;;;;;;;16.69;44.18;99065.75;8351532;28;20232;-66
2021/11/09 08:44:00;;;;;;;14.93;5.70;;;;;;;16.86;41.53;99062.31;8351860;28;20235;-67
2021/11/09 08:53:21;;;;;;;9.70;5.17;;;;;;;16.60;41.48;99074.91;8350988;28;20299;-66
2021/11/09 08:57:46;;;;;;;12.80;5.53;;;;;;;16.31;41.66;99081.63;8351328;28;20235;-66
2021/11/09 09:06:07;;;;;;;8.83;4.30;;;;;;;16.46;41.94;99088.69;8351028;28;20259;-62
2021/11/09 09:10:12;;;;;;;10.20;4.50;;;;;;;16.67;40.79;99086.75;8351086;28;20232;-62
2021/11/09 09:14:17;;;;;;;9.60;4.50;;;;;;;16.60;40.47;99085.38;8350981;28;20228;-62
2021/11/09 09:18:23;;;;;;;8.33;4.10;;;;;;;16.30;41.32;99088.63;8350984;28;20239;-62
2021/11/09 09:22:30;;;;;;;10.47;4.57;;;;;;;16.31;41.06;99082.47;8350013;28;20228;-64
2021/11/09 09:26:37;;;;;;;7.77;4.33;;;;;;;16.23;40.85;99084.63;8350341;28;20413;-62
2021/11/09 09:53:06;;;;;;;8.70;3.97;;;;;;;16.89;39.16;99081.31;8375891;28;20224;-62
2021/11/09 09:57:10;;;;;;;9.90;5.00;;;;;;;16.78;39.85;99089.66;8375967;28;20231;-62
2021/11/09 10:01:13;;;;;;;10.13;4.23;;;;;;;16.86;40.09;99083.22;8375748;28;20418;-62
2021/11/09 10:05:16;;;;;;;10.63;4.50;;;;;;;16.61;40.97;99077.47;8375476;28;20569;-61
2021/11/09 10:09:32;;;;;;;6.67;3.70;;;;;;;16.87;39.38;99082.28;8375713;28;20234;-62
2021/11/09 10:13:40;;;;;;;12.87;4.30;;;;;;;16.66;39.60;99081.59;8375504;28;20232;-63
2021/11/09 10:17:46;;;;;;;8.97;3.53;;;;;;;16.24;38.85;99078.50;8375404;28;20254;-62
2021/11/09 10:21:49;;;;;;;7.20;3.27;;;;;;;16.09;38.25;99081.84;8375456;28;20232;-62
2021/11/09 10:25:59;;;;;;;8.23;3.23;;;;;;;16.21;37.77;99073.41;8375382;28;20305;-66
2021/11/09 10:30:06;;;;;;;5.57;2.63;;;;;;;16.15;37.93;99066.72;8375159;28;20236;-65
2021/11/09 10:34:21;;;;;;;9.90;3.00;;;;;;;16.00;38.22;99063.09;8374791;28;20239;-65
2021/11/09 10:38:31;;;;;;;7.87;3.00;;;;;;;16.18;38.86;99066.56;8375066;28;20240;-65
2021/11/09 10:42:39;;;;;;;8.23;3.10;;;;;;;15.96;39.05;99066.78;8373996;28;20219;-65
2021/11/09 10:46:43;;;;;;;4.93;3.10;;;;;;;16.08;38.62;99054.03;8352276;28;20235;-65
2021/11/09 10:50:48;;;;;;;9.03;3.10;;;;;;;15.77;38.01;99051.16;8352496;28;20248;-66
2021/11/09 10:54:57;;;;;;;8.37;3.13;;;;;;;15.41;38.53;99046.72;8352402;28;20391;-66
2021/11/09 10:59:18;;;;;;;5.47;1.50;;;;;;;13.69;36.76;99044.56;8351274;28;20239;-66
2021/11/09 11:03:28;;;;;;;4.07;1.70;;;;;;;13.68;38.11;99053.28;8351513;28;20236;-66
2021/11/09 11:07:31;;;;;;;5.17;1.77;;;;;;;13.40;37.90;99052.66;8350956;28;20303;-68
2021/11/09 11:11:38;;;;;;;2.77;1.53;;;;;;;13.68;38.03;99053.28;8351443;28;20396;-66
2021/11/09 11:16:17;;;;;;;4.80;1.40;;;;;;;13.30;38.67;99041.78;8351279;28;20242;-66
2021/11/09 11:20:21;;;;;;;4.20;1.60;;;;;;;13.55;37.81;99036.44;8351287;28;20239;-66
2021/11/09 11:24:23;;;;;;;3.70;1.60;;;;;;;13.02;37.41;99023.72;8350859;28;20239;-66
2021/11/09 11:28:27;;;;;;;3.20;1.70;;;;;;;13.51;37.73;99021.03;8350265;28;20235;-65
2021/11/09 11:32:32;;;;;;;4.93;1.90;;;;;;;13.23;37.04;99012.53;8350648;28;20235;-66
2021/11/09 11:36:35;;;;;;;6.47;3.03;;;;;;;13.53;37.95;99014.84;8350551;28;20232;-66
2021/11/09 11:40:38;;;;;;;6.33;2.20;;;;;;;13.27;38.18;99010.66;8350306;28;20239;-66
2021/11/09 11:44:44;;;;;;;3.87;1.90;;;;;;;13.17;38.65;99009.31;8350322;28;20555;-62
2021/11/09 11:48:58;;;;;;;4.17;1.93;;;;;;;13.40;38.39;98993.69;8350490;28;20235;-62
2021/11/09 11:53:01;;;;;;;4.70;1.67;;;;;;;13.02;39.13;98985.59;8350266;28;20409;-62
2021/11/09 11:57:04;;;;;;;5.70;2.27;;;;;;;12.84;39.74;98983.69;8349152;28;20235;-62
2021/11/09 12:01:07;;;;;;;5.10;1.83;;;;;;;12.81;38.81;98976.84;8350049;28;20427;-62
2021/11/09 12:05:11;;;;;;;3.93;1.77;;;;;;;12.70;39.46;98984.19;8349869;28;20228;-64
2021/11/09 12:09:29;;;;;;;3.63;1.80;;;;;;;12.34;39.18;98971.63;8349918;28;20239;-62
2021/11/09 12:13:32;;;;;;;7.67;1.77;;;;;;;12.74;39.00;98964.97;8349046;28;20645;-62
2021/11/09 12:17:38;;;;;;;4.87;1.90;;;;;;;13.19;39.86;98973.69;8349404;28;20228;-62
2021/11/09 12:21:42;;;;;;;4.87;2.40;;;;;;;13.02;41.03;98961.31;8348752;28;20545;-62
2021/11/09 12:25:45;;;;;;;4.77;2.10;;;;;;;12.96;40.48;98943.38;8348690;28;20238;-66
2021/11/09 12:29:53;;;;;;;5.03;2.40;;;;;;;13.37;39.56;98946.97;8348722;28;20227;-66
2021/11/09 12:33:56;;;;;;;5.90;2.20;;;;;;;12.96;39.67;98940.75;8348477;28;20259;-66
2021/11/09 12:38:14;;;;;;;4.03;2.00;;;;;;;12.90;40.25;98950.47;8348606;28;20232;-66
2021/11/09 12:42:20;;;;;;;4.93;1.90;;;;;;;12.80;40.46;98935.31;8348673;28;20338;-65
2021/11/09 12:46:29;;;;;;;4.50;2.20;;;;;;;12.97;40.39;98943.31;8348519;28;20232;-66
2021/11/09 12:50:33;;;;;;;3.63;1.87;;;;;;;13.21;40.25;98931.13;8347913;28;20479;-67
2021/11/09 12:54:37;;;;;;;5.57;2.07;;;;;;;13.25;40.31;98919.66;8348008;28;20556;-67
2021/11/09 12:58:50;;;;;;;4.47;2.10;;;;;;;13.01;39.83;98921.47;8347566;28;20231;-67
2021/11/09 13:02:55;;;;;;;4.23;1.77;;;;;;;13.22;39.79;98914.56;8348061;28;20236;-66
2021/11/09 13:07:06;;;;;;;3.27;1.90;;;;;;;12.99;40.53;98920.69;8347783;28;20236;-64
2021/11/09 13:11:36;;;;;;;4.40;1.70;;;;;;;13.61;38.88;98929.53;8348093;28;20281;-61
2021/11/09 13:15:39;;;;;;;4.30;2.00;;;;;;;13.72;38.71;98913.44;8347273;28;20590;-61
2021/11/09 13:19:44;;;;;;;4.07;2.00;;;;;;;13.32;39.00;98922.88;8347593;28;20294;-61
2021/11/09 13:23:52;;;;;;;3.87;1.73;;;;;;;13.46;39.07;98930.13;8348063;28;20232;-61
2021/11/09 13:27:56;;;;;;;3.40;2.00;;;;;;;13.75;39.21;98918.53;8347320;28;20431;-60
2021/11/09 13:32:19;;;;;;;3.10;1.90;;;;;;;13.46;38.93;98923.19;8347662;28;20239;-61
2021/11/09 13:36:22;;;;;;;4.83;2.13;;;;;;;13.69;39.44;98931.81;8347602;28;20236;-71
2021/11/09 13:40:31;;;;;;;6.83;1.80;;;;;;;13.34;40.30;98928.03;8347429;28;20421;-65
2021/11/09 13:44:36;;;;;;;2.83;1.90;;;;;;;12.97;40.85;98926.88;8347166;28;20228;-64
2021/11/09 13:48:42;;;;;;;3.73;1.73;;;;;;;13.74;39.59;98935.03;8346677;28;20291;-65
2021/11/09 13:52:47;;;;;;;3.33;1.97;;;;;;;13.51;39.55;98929.97;8346924;28;20239;-65
2021/11/09 13:56:52;;;;;;;6.80;2.20;;;;;;;13.36;39.98;98928.81;8347287;28;20434;-65
2021/11/09 14:01:00;;;;;;;4.80;1.83;;;;;;;13.69;39.89;98924.84;8347551;28;20232;-64
2021/11/09 14:05:33;;;;;;;4.93;1.90;;;;;;;13.81;39.10;98926.06;8346586;28;20236;-64
2021/11/09 14:14:25;;;;;;;4.60;1.70;;;;;;;13.63;38.70;98932.03;8346252;28;20238;-66
2021/11/09 14:18:29;;;;;;;5.87;1.80;;;;;;;13.63;38.72;98925.09;8346925;28;20232;-66
2021/11/09 14:22:32;;;;;;;4.07;1.70;;;;;;;13.42;38.17;98928.56;8352891;28;20236;-61
2021/11/09 14:26:35;;;;;;;3.07;1.60;;;;;;;13.52;38.59;98929.03;8353287;28;20236;-60
2021/11/09 14:30:40;;;;;;;4.17;1.80;;;;;;;13.45;39.71;98924.09;8352797;28;20429;-60
2021/11/09 14:34:57;;;;;;;4.53;2.00;;;;;;;13.57;38.18;98927.09;8352835;28;20294;-61
2021/11/09 14:39:08;;;;;;;4.03;1.93;;;;;;;13.52;39.02;98924.69;8352797;28;20534;-61
2021/11/09 14:43:15;;;;;;;3.23;1.67;;;;;;;13.57;39.68;98927.09;8353074;28;20239;-60
2021/11/09 14:47:19;;;;;;;2.60;1.60;;;;;;;13.38;39.42;98937.41;8352598;28;20287;-61
2021/11/09 14:51:29;;;;;;;7.33;2.37;;;;;;;12.83;40.54;98937.78;8352716;28;20239;-60
2021/11/09 14:55:42;;;;;;;5.97;2.10;;;;;;;12.96;40.39;98936.41;8352071;28;20243;-61
2021/11/09 15:00:02;;;;;;;5.30;2.37;;;;;;;12.72;41.07;98930.41;8352345;28;20425;-61
2021/11/09 15:04:11;;;;;;;4.60;2.30;;;;;;;12.95;40.49;98924.31;8350900;28;20513;-61
2021/11/09 15:08:25;;;;;;;4.87;2.70;;;;;;;12.87;40.84;98910.75;8352574;28;20531;-61
2021/11/09 15:12:43;;;;;;;4.53;1.80;;;;;;;12.63;41.13;98909.97;8351535;28;20232;-65
2021/11/09 15:25:56;;;;;;;5.47;1.97;;;;;;;12.91;41.55;98886.34;8351097;28;20232;-64
2021/11/09 15:30:01;;;;;;;2.40;1.40;;;;;;;12.58;40.80;98906.69;8350871;28;20228;-63
2021/11/09 15:34:20;;;;;;;7.93;7.13;;;;;;;12.53;41.28;98893.88;8350530;28;20243;-66
2021/11/09 15:38:24;;;;;;;9.57;8.50;;;;;;;12.63;40.92;98891.78;8350653;28;20232;-64
2021/11/09 15:42:29;;;;;;;5.03;3.30;;;;;;;12.76;41.26;98893.00;8350302;28;20231;-64
2021/11/09 15:46:33;;;;;;;5.33;2.47;;;;;;;12.72;41.76;98888.81;8350374;28;20239;-64
2021/11/09 15:50:36;;;;;;;5.73;2.60;;;;;;;12.78;42.13;98885.97;8350490;28;20562;-65
2021/11/09 15:54:39;;;;;;;3.20;1.83;;;;;;;12.80;42.20;98889.38;8350270;28;20563;-65
2021/11/09 15:58:44;;;;;;;5.47;1.97;;;;;;;12.76;42.38;98887.78;8349941;28;20236;-64
2021/11/09 16:02:47;;;;;;;7.13;2.33;;;;;;;12.73;42.98;98884.47;8349769;28;20228;-65
2021/11/09 16:06:51;;;;;;;5.33;3.03;;;;;;;12.73;44.04;98868.88;8349852;28;20429;-64
2021/11/09 16:10:54;;;;;;;7.43;3.10;;;;;;;12.60;45.20;98869.31;8349915;28;20527;-65
2021/11/09 16:15:06;;;;;;;11.67;5.07;;;;;;;12.61;45.02;98870.19;8349210;28;20295;-65
2021/11/09 16:19:09;;;;;;;14.70;5.03;;;;;;;12.49;45.55;98880.16;8349453;28;20224;-64
2021/11/09 16:23:13;;;;;;;13.53;4.80;;;;;;;12.42;45.56;98862.25;8349785;28;20243;-64
2021/11/09 16:27:16;;;;;;;9.60;4.03;;;;;;;12.41;45.98;98863.13;8349512;28;20538;-62
2021/11/09 16:31:20;;;;;;;9.17;4.07;;;;;;;12.29;45.89;98861.84;8348595;28;20239;-61
2021/11/09 16:35:29;;;;;;;8.20;5.03;;;;;;;12.22;46.50;98862.97;8348791;28;20240;-61
2021/11/09 16:39:37;;;;;;;6.97;4.10;;;;;;;12.09;46.84;98858.25;8349008;28;20228;-60
2021/11/09 16:43:44;;;;;;;6.07;3.40;;;;;;;12.06;46.58;98852.31;8348513;28;20252;-60
2021/11/09 16:47:48;;;;;;;7.93;3.30;;;;;;;12.01;46.75;98844.66;8348782;28;20515;-60
2021/11/09 16:51:53;;;;;;;7.00;3.80;;;;;;;11.90;46.67;98844.25;8345423;28;20232;-59
2021/11/09 16:56:29;;;;;;;10.03;4.70;;;;;;;11.90;46.52;98839.88;8348290;28;20251;-60
2021/11/09 17:00:37;;;;;;;8.60;3.73;;;;;;;11.70;46.62;98840.53;8347646;28;20523;-64
2021/11/09 18:23:52;;;;;;;17.73;9.03;;;;;;;10.43;48.95;98860.19;8353120;28;20224;-60
2021/11/09 18:27:57;;;;;;;18.40;9.43;;;;;;;10.37;48.92;98864.66;8352589;28;20243;-60
2021/11/09 18:32:02;;;;;;;19.20;11.03;;;;;;;10.32;49.61;98876.91;8353167;28;20243;-59
2021/11/09 18:36:05;;;;;;;12.20;9.07;;;;;;;10.25;49.46;98879.69;8352732;28;20254;-60
2021/11/09 18:40:12;;;;;;;19.60;13.93;;;;;;;10.19;48.34;98880.72;8352686;28;20464;-59
2021/11/09 18:44:16;;;;;;;19.37;13.63;;;;;;;10.05;49.51;98885.41;8351306;28;20246;-60
2021/11/09 18:48:22;;;;;;;23.77;14.00;;;;;;;10.12;49.17;98864.47;8351687;28;20239;-60
2021/11/09 18:52:25;;;;;;;17.47;11.90;;;;;;;10.04;49.30;98868.19;8351964;28;20244;-60
2021/11/09 18:56:28;;;;;;;31.63;16.03;;;;;;;12.37;54.68;98878.00;8343641;28;20232;-68
2021/11/09 19:00:31;;;;;;;29.10;14.67;;;;;;;12.97;46.99;98875.72;8351275;28;20427;-68
2021/11/09 19:04:35;;;;;;;25.13;16.40;;;;;;;13.24;44.53;98880.72;8350996;28;20244;-68
2021/11/09 19:08:39;;;;;;;27.10;15.63;;;;;;;11.48;45.45;98875.91;8351490;28;20236;-64
2021/11/09 19:12:42;;;;;;;32.17;28.70;;;;;;;10.99;46.93;98877.53;8351408;28;20561;-64
2021/11/09 19:16:47;;;;;;;31.07;24.90;;;;;;;10.47;47.74;98875.63;8351129;28;20239;-64
2021/11/09 19:20:51;;;;;;;41.40;34.50;;;;;;;10.43;48.36;98871.41;8351320;28;20236;-64
2021/11/09 19:24:54;;;;;;;35.37;25.70;;;;;;;10.09;48.41;98882.72;8351294;28;20236;-64
2021/11/09 19:28:57;;;;;;;27.40;21.80;;;;;;;10.02;48.62;98891.53;8351235;28;20232;-63
2021/11/09 19:33:01;;;;;;;24.27;17.23;;;;;;;9.99;48.68;98876.06;8351200;28;20232;-63
2021/11/09 19:37:06;;;;;;;21.43;18.27;;;;;;;9.90;48.68;98868.56;8350782;28;20236;-63
2021/11/09 19:41:09;;;;;;;21.53;17.10;;;;;;;9.77;49.28;98853.38;8351215;28;20286;-65
2021/11/09 19:45:16;;;;;;;19.83;14.87;;;;;;;9.80;49.76;98870.53;8350154;28;20247;-64
2021/11/09 19:49:31;;;;;;;15.93;13.50;;;;;;;9.65;49.38;98894.22;8349442;28;20239;-65
2021/11/09 19:53:35;;;;;;;22.47;13.63;;;;;;;9.66;49.63;98883.84;8348065;28;20228;-64
2021/11/09 19:57:40;;;;;;;19.93;14.13;;;;;;;9.56;49.99;98897.91;8349636;28;20243;-64
2021/11/09 20:01:44;;;;;;;22.07;15.37;;;;;;;9.50;49.73;98883.41;8349219;28;20224;-64
2021/11/09 20:05:48;;;;;;;19.97;14.73;;;;;;;9.54;49.78;98869.50;8349106;28;20240;-64
2021/11/09 20:09:54;;;;;;;21.03;14.93;;;;;;;9.78;49.38;98869.75;8346178;28;20236;-65
2021/11/09 20:13:59;;;;;;;17.33;12.27;;;;;;;9.67;49.68;98849.34;8348714;28;20424;-64
2021/11/09 20:18:02;;;;;;;13.23;8.90;;;;;;;9.65;50.46;98871.78;8347704;28;20232;-64
2021/11/09 20:22:05;;;;;;;12.13;6.90;;;;;;;9.67;50.32;98857.09;8348600;28;20225;-65
2021/11/09 20:26:11;;;;;;;8.90;6.20;;;;;;;9.78;49.97;98847.28;8348405;28;20553;-65
2021/11/09 20:30:14;;;;;;;8.43;5.70;;;;;;;9.82;50.37;98873.09;8345849;28;20231;-64
2021/11/09 20:34:18;;;;;;;8.27;4.83;;;;;;;9.95;50.54;98858.94;8347960;28;20236;-64
2021/11/09 20:38:23;;;;;;;6.50;4.23;;;;;;;9.85;50.86;98865.25;8347895;28;20254;-64
2021/11/09 20:42:27;;;;;;;10.53;7.20;;;;;;;9.82;49.61;98878.25;8347551;28;20417;-65
2021/11/09 20:46:30;;;;;;;18.87;12.47;;;;;;;9.68;49.39;98886.41;8347748;28;20232;-66
2021/11/09 20:50:34;;;;;;;19.90;14.73;;;;;;;9.64;49.10;98898.56;8347883;28;20231;-65
2021/11/09 20:54:37;;;;;;;17.87;13.50;;;;;;;9.59;49.49;98903.00;8347671;28;20228;-65
2021/11/09 20:58:42;;;;;;;16.20;12.47;;;;;;;9.59;49.58;98890.06;8347569;28;20418;-64
2021/11/09 21:02:47;;;;;;;17.53;13.83;;;;;;;9.61;49.49;98896.03;8347487;28;20747;-64
2021/11/09 21:06:51;;;;;;;17.08;13.63;;;;;;;9.91;48.45;98890.97;8345775;28;20422;-64
2021/11/09 21:10:55;;;;;;;36.47;24.27;;;;;;;9.44;49.68;98880.09;8347075;28;20416;-65
2021/11/09 21:19:20;;;;;;;15.33;13.00;;;;;;;9.46;49.72;98893.84;8345460;28;20223;-63
2021/11/09 21:23:23;;;;;;;20.07;13.60;;;;;;;9.49;49.42;98898.94;8347054;28;20231;-64
2021/11/09 21:27:26;;;;;;;16.27;13.10;;;;;;;9.38;49.57;98901.78;8338444;28;20228;-65
2021/11/09 21:31:46;;;;;;;15.60;12.43;;;;;;;9.41;49.36;98899.16;8346443;28;20503;-63
2021/11/09 21:35:49;;;;;;;15.63;12.97;;;;;;;9.27;49.32;98893.44;8346292;28;20303;-64
2021/11/09 21:39:52;;;;;;;18.93;10.87;;;;;;;9.25;49.57;98892.63;8346596;28;20232;-64
2021/11/09 21:43:55;;;;;;;13.33;10.47;;;;;;;9.23;49.40;98871.16;8344117;28;20415;-65
2021/11/09 21:48:00;;;;;;;16.57;10.37;;;;;;;9.10;50.01;98874.03;8346381;28;20239;-64
2021/11/09 21:52:04;;;;;;;11.70;10.07;;;;;;;9.16;49.80;98884.22;8346226;28;20527;-65
2021/11/09 21:56:07;;;;;;;11.97;9.90;;;;;;;9.18;49.48;98881.63;8346360;28;20232;-64
2021/11/09 22:00:12;;;;;;;12.57;10.13;;;;;;;9.12;49.61;98885.19;8346326;28;20235;-64
2021/11/09 22:04:17;;;;;;;15.80;11.80;;;;;;;8.99;49.53;98881.19;8343753;28;20234;-65
2021/11/09 22:08:20;;;;;;;18.83;12.80;;;;;;;8.99;49.69;98870.88;8345974;28;20232;-64
2021/11/09 22:12:23;;;;;;;15.53;12.23;;;;;;;9.05;49.38;98859.53;8346044;28;20231;-64
2021/11/09 22:16:31;;;;;;;18.17;13.57;;;;;;;8.94;49.77;98868.38;8345610;28;20304;-64
2021/11/09 22:20:39;;;;;;;17.70;13.33;;;;;;;8.86;49.67;98859.97;8343354;28;20431;-65
2021/11/09 22:24:42;;;;;;;20.57;14.37;;;;;;;8.88;50.22;98868.53;8345289;28;20228;-64
2021/11/09 22:28:45;;;;;;;18.57;14.97;;;;;;;8.79;49.89;98868.72;8345427;28;20239;-64
2021/11/09 22:32:48;;;;;;;21.77;16.10;;;;;;;8.75;49.91;98878.28;8344999;28;20246;-64
2021/11/09 22:36:53;;;;;;;24.43;17.77;;;;;;;8.72;49.64;98880.06;8345736;28;20232;-64
2021/11/09 22:41:00;;;;;;;16.50;12.63;;;;;;;8.68;49.96;98879.31;8346878;28;20228;-64
2021/11/09 22:45:04;;;;;;;14.87;10.30;;;;;;;8.57;50.37;98881.28;8351683;28;20239;-64
2021/11/09 22:49:07;;;;;;;13.77;10.80;;;;;;;8.33;51.53;98885.19;8351708;28;20419;-64
2021/11/09 22:53:11;;;;;;;15.67;11.07;;;;;;;8.20;51.47;98874.25;8351366;28;20228;-64
2021/11/09 22:57:16;;;;;;;16.70;11.80;;;;;;;8.25;51.45;98880.19;8348697;28;20243;-66
2021/11/09 23:01:19;;;;;;;16.63;11.37;;;;;;;8.19;51.14;98870.00;8351312;28;20220;-66
2021/11/09 23:05:24;;;;;;;17.73;12.13;;;;;;;8.14;51.59;98864.91;8351179;28;20450;-65
2021/11/09 23:09:28;;;;;;;17.33;10.10;;;;;;;8.15;51.88;98866.63;8350732;28;20234;-65
2021/11/09 23:13:32;;;;;;;11.50;8.87;;;;;;;8.21;51.45;98871.66;8350542;28;20400;-65
2021/11/09 23:17:35;;;;;;;13.53;8.30;;;;;;;8.13;51.59;98857.19;8350412;28;20463;-65
2021/11/09 23:21:38;;;;;;;13.23;8.73;;;;;;;8.05;51.61;98841.03;8350875;28;20240;-65
2021/11/09 23:25:42;;;;;;;11.23;8.40;;;;;;;8.09;51.80;98850.41;8351472;28;20235;-64
2021/11/09 23:29:45;;;;;;;10.80;8.77;;;;;;;8.07;51.31;98847.00;8342364;28;20247;-65
2021/11/09 23:33:48;;;;;;;12.03;9.30;;;;;;;7.93;51.94;98850.69;8350807;28;20232;-65
2021/11/09 23:37:51;;;;;;;13.50;9.70;;;;;;;7.92;51.31;98851.59;8350981;28;20232;-64
2021/11/09 23:41:56;;;;;;;14.67;9.93;;;;;;;7.85;51.08;98850.00;8351089;28;20558;-64
2021/11/09 23:45:59;;;;;;;14.70;10.00;;;;;;;7.86;50.65;98835.38;8350869;28;20228;-64
2021/11/09 23:50:01;;;;;;;13.77;10.20;;;;;;;7.81;51.29;98840.63;8350455;28;20235;-64
2021/11/09 23:54:13;;;;;;;12.13;10.03;;;;;;;7.75;51.12;98836.44;8350603;28;20235;-64
2021/11/09 23:58:18;;;;;;;10.53;9.33;;;;;;;7.82;50.47;98843.19;8350304;28;20228;-64
